sensor_id;sensor_type;location;lat;lon;timestamp;P1;durP1;ratioP1;P2;durP2;ratioP2
13807;SDS011;40769;51.512;5.494;2024-02-26T00:00:39;2.10;;;1.90;;
13807;SDS011;40769;51.512;5.494;2024-02-26T00:03:05;2.05;;;1.65;;
13807;SDS011;40769;51.512;5.494;2024-02-26T00:05:31;2.42;;;2.08;;
13807;SDS011;40769;51.512;5.494;2024-02-26T00:07:57;1.65;;;1.55;;
13807;SDS011;40769;51.512;5.494;2024-02-26T00:10:22;1.70;;;1.60;;
13807;SDS011;40769;51.512;5.494;2024-02-26T00:12:49;1.67;;;1.50;;
13807;SDS011;40769;51.512;5.494;2024-02-26T00:15:17;1.73;;;1.35;;
13807;SDS011;40769;51.512;5.494;2024-02-26T00:17:42;1.80;;;1.60;;
13807;SDS011;40769;51.512;5.494;2024-02-26T00:20:08;2.25;;;1.77;;
13807;SDS011;40769;51.512;5.494;2024-02-26T00:22:36;1.88;;;1.67;;
13807;SDS011;40769;51.512;5.494;2024-02-26T00:25:02;1.70;;;1.42;;
13807;SDS011;40769;51.512;5.494;2024-02-26T00:27:28;1.70;;;1.55;;
13807;SDS011;40769;51.512;5.494;2024-02-26T00:29:54;1.40;;;1.30;;
13807;SDS011;40769;51.512;5.494;2024-02-26T00:32:20;1.25;;;1.15;;
13807;SDS011;40769;51.512;5.494;2024-02-26T00:34:45;1.60;;;1.42;;
13807;SDS011;40769;51.512;5.494;2024-02-26T00:37:11;1.63;;;1.52;;
13807;SDS011;40769;51.512;5.494;2024-02-26T00:39:36;1.55;;;1.45;;
13807;SDS011;40769;51.512;5.494;2024-02-26T00:42:02;1.60;;;1.30;;
13807;SDS011;40769;51.512;5.494;2024-02-26T00:44:28;1.50;;;1.40;;
13807;SDS011;40769;51.512;5.494;2024-02-26T00:46:53;1.77;;;1.58;;
13807;SDS011;40769;51.512;5.494;2024-02-26T00:49:19;1.67;;;1.58;;
13807;SDS011;40769;51.512;5.494;2024-02-26T00:51:47;2.30;;;2.10;;
13807;SDS011;40769;51.512;5.494;2024-02-26T00:54:12;2.92;;;2.40;;
13807;SDS011;40769;51.512;5.494;2024-02-26T00:56:38;2.17;;;1.98;;
13807;SDS011;40769;51.512;5.494;2024-02-26T00:59:04;1.88;;;1.70;;
13807;SDS011;40769;51.512;5.494;2024-02-26T01:01:29;2.08;;;1.67;;
13807;SDS011;40769;51.512;5.494;2024-02-26T01:03:55;1.75;;;1.65;;
13807;SDS011;40769;51.512;5.494;2024-02-26T01:06:20;2.00;;;1.48;;
13807;SDS011;40769;51.512;5.494;2024-02-26T01:08:47;1.60;;;1.50;;
13807;SDS011;40769;51.512;5.494;2024-02-26T01:11:12;2.10;;;1.90;;
13807;SDS011;40769;51.512;5.494;2024-02-26T01:13:38;1.55;;;1.30;;
13807;SDS011;40769;51.512;5.494;2024-02-26T01:16:04;1.77;;;1.48;;
13807;SDS011;40769;51.512;5.494;2024-02-26T01:18:30;1.10;;;1.00;;
13807;SDS011;40769;51.512;5.494;2024-02-26T01:20:55;1.40;;;1.30;;
13807;SDS011;40769;51.512;5.494;2024-02-26T01:23:21;1.63;;;1.45;;
13807;SDS011;40769;51.512;5.494;2024-02-26T01:25:46;1.65;;;1.55;;
13807;SDS011;40769;51.512;5.494;2024-02-26T01:28:13;1.23;;;1.13;;
13807;SDS011;40769;51.512;5.494;2024-02-26T01:30:39;1.30;;;1.20;;
13807;SDS011;40769;51.512;5.494;2024-02-26T01:33:04;1.60;;;1.50;;
13807;SDS011;40769;51.512;5.494;2024-02-26T01:35:30;1.13;;;1.02;;
13807;SDS011;40769;51.512;5.494;2024-02-26T01:37:56;1.27;;;1.17;;
13807;SDS011;40769;51.512;5.494;2024-02-26T01:40:22;1.40;;;1.30;;
13807;SDS011;40769;51.512;5.494;2024-02-26T01:42:52;1.30;;;1.20;;
13807;SDS011;40769;51.512;5.494;2024-02-26T01:45:17;1.40;;;1.30;;
13807;SDS011;40769;51.512;5.494;2024-02-26T01:47:47;1.25;;;1.15;;
13807;SDS011;40769;51.512;5.494;2024-02-26T01:50:17;1.40;;;1.25;;
13807;SDS011;40769;51.512;5.494;2024-02-26T01:52:44;1.23;;;1.13;;
13807;SDS011;40769;51.512;5.494;2024-02-26T01:55:14;1.77;;;1.67;;
13807;SDS011;40769;51.512;5.494;2024-02-26T01:57:41;1.65;;;1.55;;
13807;SDS011;40769;51.512;5.494;2024-02-26T02:00:08;1.40;;;1.30;;
13807;SDS011;40769;51.512;5.494;2024-02-26T02:02:35;1.70;;;1.60;;
13807;SDS011;40769;51.512;5.494;2024-02-26T02:05:01;1.50;;;1.40;;
13807;SDS011;40769;51.512;5.494;2024-02-26T02:07:28;1.50;;;1.40;;
13807;SDS011;40769;51.512;5.494;2024-02-26T02:09:54;1.20;;;1.10;;
13807;SDS011;40769;51.512;5.494;2024-02-26T02:12:20;1.60;;;1.50;;
13807;SDS011;40769;51.512;5.494;2024-02-26T02:14:46;1.30;;;1.20;;
13807;SDS011;40769;51.512;5.494;2024-02-26T02:17:12;1.05;;;0.95;;
13807;SDS011;40769;51.512;5.494;2024-02-26T02:19:38;1.30;;;1.20;;
13807;SDS011;40769;51.512;5.494;2024-02-26T02:22:04;1.42;;;1.33;;
13807;SDS011;40769;51.512;5.494;2024-02-26T02:24:29;1.65;;;1.55;;
13807;SDS011;40769;51.512;5.494;2024-02-26T02:26:55;1.50;;;1.40;;
13807;SDS011;40769;51.512;5.494;2024-02-26T02:29:21;1.10;;;1.00;;
13807;SDS011;40769;51.512;5.494;2024-02-26T02:31:47;1.45;;;1.35;;
13807;SDS011;40769;51.512;5.494;2024-02-26T02:34:12;1.85;;;1.75;;
13807;SDS011;40769;51.512;5.494;2024-02-26T02:39:15;1.60;;;1.50;;
13807;SDS011;40769;51.512;5.494;2024-02-26T02:41:41;1.33;;;1.20;;
13807;SDS011;40769;51.512;5.494;2024-02-26T02:44:06;1.70;;;1.60;;
13807;SDS011;40769;51.512;5.494;2024-02-26T02:46:32;1.40;;;1.30;;
13807;SDS011;40769;51.512;5.494;2024-02-26T02:48:58;1.45;;;1.35;;
13807;SDS011;40769;51.512;5.494;2024-02-26T02:51:24;1.40;;;1.30;;
13807;SDS011;40769;51.512;5.494;2024-02-26T02:53:49;1.30;;;1.20;;
13807;SDS011;40769;51.512;5.494;2024-02-26T02:56:15;1.60;;;1.50;;
13807;SDS011;40769;51.512;5.494;2024-02-26T02:58:41;1.40;;;1.30;;
13807;SDS011;40769;51.512;5.494;2024-02-26T03:01:06;1.20;;;1.10;;
13807;SDS011;40769;51.512;5.494;2024-02-26T03:03:32;1.58;;;1.40;;
13807;SDS011;40769;51.512;5.494;2024-02-26T03:05:58;1.55;;;1.45;;
13807;SDS011;40769;51.512;5.494;2024-02-26T03:08:24;1.50;;;1.40;;
13807;SDS011;40769;51.512;5.494;2024-02-26T03:10:50;1.48;;;1.20;;
13807;SDS011;40769;51.512;5.494;2024-02-26T03:13:16;1.35;;;1.25;;
13807;SDS011;40769;51.512;5.494;2024-02-26T03:15:42;1.50;;;1.40;;
13807;SDS011;40769;51.512;5.494;2024-02-26T03:18:08;1.60;;;1.50;;
13807;SDS011;40769;51.512;5.494;2024-02-26T03:20:33;1.52;;;1.38;;
13807;SDS011;40769;51.512;5.494;2024-02-26T03:22:59;1.15;;;1.08;;
13807;SDS011;40769;51.512;5.494;2024-02-26T03:25:24;1.40;;;1.30;;
13807;SDS011;40769;51.512;5.494;2024-02-26T03:27:50;1.80;;;1.70;;
13807;SDS011;40769;51.512;5.494;2024-02-26T03:30:16;2.08;;;1.50;;
13807;SDS011;40769;51.512;5.494;2024-02-26T03:32:41;1.70;;;1.60;;
13807;SDS011;40769;51.512;5.494;2024-02-26T03:35:07;1.73;;;1.63;;
13807;SDS011;40769;51.512;5.494;2024-02-26T03:37:33;1.70;;;1.60;;
13807;SDS011;40769;51.512;5.494;2024-02-26T03:39:59;1.95;;;1.80;;
13807;SDS011;40769;51.512;5.494;2024-02-26T03:42:26;1.75;;;1.65;;
13807;SDS011;40769;51.512;5.494;2024-02-26T03:44:51;1.88;;;1.77;;
13807;SDS011;40769;51.512;5.494;2024-02-26T03:47:17;1.80;;;1.70;;
13807;SDS011;40769;51.512;5.494;2024-02-26T03:49:43;1.95;;;1.85;;
13807;SDS011;40769;51.512;5.494;2024-02-26T03:52:08;2.28;;;2.00;;
13807;SDS011;40769;51.512;5.494;2024-02-26T03:54:34;2.40;;;2.20;;
13807;SDS011;40769;51.512;5.494;2024-02-26T03:57:00;2.67;;;2.03;;
13807;SDS011;40769;51.512;5.494;2024-02-26T03:59:26;2.40;;;2.20;;
13807;SDS011;40769;51.512;5.494;2024-02-26T04:01:51;2.00;;;1.83;;
13807;SDS011;40769;51.512;5.494;2024-02-26T04:04:17;2.17;;;1.90;;
13807;SDS011;40769;51.512;5.494;2024-02-26T04:06:46;2.00;;;1.90;;
13807;SDS011;40769;51.512;5.494;2024-02-26T04:09:13;2.15;;;1.98;;
13807;SDS011;40769;51.512;5.494;2024-02-26T04:11:39;2.15;;;1.90;;
13807;SDS011;40769;51.512;5.494;2024-02-26T04:14:05;2.13;;;1.92;;
13807;SDS011;40769;51.512;5.494;2024-02-26T04:16:33;2.25;;;2.05;;
13807;SDS011;40769;51.512;5.494;2024-02-26T04:19:00;2.17;;;2.00;;
13807;SDS011;40769;51.512;5.494;2024-02-26T04:21:26;2.00;;;1.90;;
13807;SDS011;40769;51.512;5.494;2024-02-26T04:23:51;2.53;;;2.13;;
13807;SDS011;40769;51.512;5.494;2024-02-26T04:26:20;2.70;;;1.90;;
13807;SDS011;40769;51.512;5.494;2024-02-26T04:28:46;2.20;;;2.00;;
13807;SDS011;40769;51.512;5.494;2024-02-26T04:31:12;2.10;;;1.98;;
13807;SDS011;40769;51.512;5.494;2024-02-26T04:33:37;1.85;;;1.75;;
13807;SDS011;40769;51.512;5.494;2024-02-26T04:36:03;1.80;;;1.70;;
13807;SDS011;40769;51.512;5.494;2024-02-26T04:38:29;1.90;;;1.80;;
13807;SDS011;40769;51.512;5.494;2024-02-26T04:40:54;2.10;;;2.00;;
13807;SDS011;40769;51.512;5.494;2024-02-26T04:43:20;2.28;;;2.08;;
13807;SDS011;40769;51.512;5.494;2024-02-26T04:45:46;2.10;;;2.00;;
13807;SDS011;40769;51.512;5.494;2024-02-26T04:48:11;2.47;;;2.28;;
13807;SDS011;40769;51.512;5.494;2024-02-26T04:50:37;2.00;;;1.90;;
13807;SDS011;40769;51.512;5.494;2024-02-26T04:53:02;2.25;;;2.05;;
13807;SDS011;40769;51.512;5.494;2024-02-26T04:55:28;2.30;;;2.20;;
13807;SDS011;40769;51.512;5.494;2024-02-26T04:57:54;2.05;;;1.95;;
13807;SDS011;40769;51.512;5.494;2024-02-26T05:00:19;1.90;;;1.80;;
13807;SDS011;40769;51.512;5.494;2024-02-26T05:02:45;2.00;;;1.90;;
13807;SDS011;40769;51.512;5.494;2024-02-26T05:05:11;2.92;;;2.13;;
13807;SDS011;40769;51.512;5.494;2024-02-26T05:07:41;1.90;;;1.80;;
13807;SDS011;40769;51.512;5.494;2024-02-26T05:10:07;2.13;;;2.03;;
13807;SDS011;40769;51.512;5.494;2024-02-26T05:12:33;2.38;;;2.17;;
13807;SDS011;40769;51.512;5.494;2024-02-26T05:15:01;2.20;;;2.10;;
13807;SDS011;40769;51.512;5.494;2024-02-26T05:17:27;2.42;;;2.22;;
13807;SDS011;40769;51.512;5.494;2024-02-26T05:19:53;2.20;;;2.10;;
13807;SDS011;40769;51.512;5.494;2024-02-26T05:22:18;2.30;;;2.10;;
13807;SDS011;40769;51.512;5.494;2024-02-26T05:24:44;1.70;;;1.60;;
13807;SDS011;40769;51.512;5.494;2024-02-26T05:27:10;2.35;;;2.15;;
13807;SDS011;40769;51.512;5.494;2024-02-26T05:29:37;2.30;;;2.10;;
13807;SDS011;40769;51.512;5.494;2024-02-26T05:32:03;1.90;;;1.80;;
13807;SDS011;40769;51.512;5.494;2024-02-26T05:34:29;2.20;;;2.00;;
13807;SDS011;40769;51.512;5.494;2024-02-26T05:36:55;1.83;;;1.73;;
13807;SDS011;40769;51.512;5.494;2024-02-26T05:39:21;1.98;;;1.80;;
13807;SDS011;40769;51.512;5.494;2024-02-26T05:41:48;1.98;;;1.77;;
13807;SDS011;40769;51.512;5.494;2024-02-26T05:44:14;1.98;;;1.88;;
13807;SDS011;40769;51.512;5.494;2024-02-26T05:46:41;1.80;;;1.70;;
13807;SDS011;40769;51.512;5.494;2024-02-26T05:49:07;2.50;;;2.30;;
13807;SDS011;40769;51.512;5.494;2024-02-26T05:51:32;2.60;;;2.10;;
13807;SDS011;40769;51.512;5.494;2024-02-26T05:53:58;2.22;;;2.03;;
13807;SDS011;40769;51.512;5.494;2024-02-26T05:56:24;2.20;;;2.10;;
13807;SDS011;40769;51.512;5.494;2024-02-26T05:58:49;2.60;;;2.13;;
13807;SDS011;40769;51.512;5.494;2024-02-26T06:01:16;2.28;;;1.98;;
13807;SDS011;40769;51.512;5.494;2024-02-26T06:03:42;2.30;;;2.10;;
13807;SDS011;40769;51.512;5.494;2024-02-26T06:06:09;2.00;;;1.90;;
13807;SDS011;40769;51.512;5.494;2024-02-26T06:08:35;2.45;;;2.28;;
13807;SDS011;40769;51.512;5.494;2024-02-26T06:11:05;2.50;;;2.30;;
13807;SDS011;40769;51.512;5.494;2024-02-26T06:13:31;2.80;;;2.13;;
13807;SDS011;40769;51.512;5.494;2024-02-26T06:15:57;2.00;;;1.90;;
13807;SDS011;40769;51.512;5.494;2024-02-26T06:18:23;2.30;;;2.10;;
13807;SDS011;40769;51.512;5.494;2024-02-26T06:20:49;2.10;;;2.00;;
13807;SDS011;40769;51.512;5.494;2024-02-26T06:23:14;2.17;;;2.08;;
13807;SDS011;40769;51.512;5.494;2024-02-26T06:25:40;2.92;;;2.72;;
13807;SDS011;40769;51.512;5.494;2024-02-26T06:28:07;2.60;;;2.40;;
13807;SDS011;40769;51.512;5.494;2024-02-26T06:30:33;2.42;;;2.22;;
13807;SDS011;40769;51.512;5.494;2024-02-26T06:32:59;2.60;;;2.40;;
13807;SDS011;40769;51.512;5.494;2024-02-26T06:35:25;2.17;;;2.08;;
13807;SDS011;40769;51.512;5.494;2024-02-26T06:37:51;2.78;;;2.58;;
13807;SDS011;40769;51.512;5.494;2024-02-26T06:40:18;3.30;;;3.10;;
13807;SDS011;40769;51.512;5.494;2024-02-26T06:42:44;2.63;;;2.42;;
13807;SDS011;40769;51.512;5.494;2024-02-26T06:45:10;3.47;;;3.28;;
13807;SDS011;40769;51.512;5.494;2024-02-26T06:47:36;3.35;;;2.90;;
13807;SDS011;40769;51.512;5.494;2024-02-26T06:50:01;2.90;;;2.70;;
13807;SDS011;40769;51.512;5.494;2024-02-26T06:52:27;3.45;;;3.15;;
13807;SDS011;40769;51.512;5.494;2024-02-26T06:54:53;3.40;;;3.10;;
13807;SDS011;40769;51.512;5.494;2024-02-26T06:57:19;6.10;;;4.07;;
13807;SDS011;40769;51.512;5.494;2024-02-26T06:59:45;3.53;;;3.30;;
13807;SDS011;40769;51.512;5.494;2024-02-26T07:02:12;3.50;;;3.30;;
13807;SDS011;40769;51.512;5.494;2024-02-26T07:04:44;4.07;;;3.78;;
13807;SDS011;40769;51.512;5.494;2024-02-26T07:07:09;4.35;;;4.05;;
13807;SDS011;40769;51.512;5.494;2024-02-26T07:09:35;3.50;;;3.20;;
13807;SDS011;40769;51.512;5.494;2024-02-26T07:12:01;4.20;;;3.80;;
13807;SDS011;40769;51.512;5.494;2024-02-26T07:14:27;3.83;;;3.47;;
13807;SDS011;40769;51.512;5.494;2024-02-26T07:16:53;4.07;;;3.78;;
13807;SDS011;40769;51.512;5.494;2024-02-26T07:19:18;4.45;;;4.07;;
13807;SDS011;40769;51.512;5.494;2024-02-26T07:21:44;3.90;;;3.42;;
13807;SDS011;40769;51.512;5.494;2024-02-26T07:24:10;3.00;;;2.80;;
13807;SDS011;40769;51.512;5.494;2024-02-26T07:26:35;3.45;;;3.25;;
13807;SDS011;40769;51.512;5.494;2024-02-26T07:29:01;3.75;;;3.20;;
13807;SDS011;40769;51.512;5.494;2024-02-26T07:31:27;3.65;;;3.42;;
13807;SDS011;40769;51.512;5.494;2024-02-26T07:33:53;3.63;;;3.42;;
13807;SDS011;40769;51.512;5.494;2024-02-26T07:38:54;4.03;;;3.72;;
13807;SDS011;40769;51.512;5.494;2024-02-26T07:49:13;3.33;;;3.13;;
13807;SDS011;40769;51.512;5.494;2024-02-26T08:17:30;2.92;;;2.72;;
13807;SDS011;40769;51.512;5.494;2024-02-26T08:19:57;2.58;;;2.38;;
13807;SDS011;40769;51.512;5.494;2024-02-26T08:24:59;2.78;;;2.53;;
13807;SDS011;40769;51.512;5.494;2024-02-26T08:30:00;3.15;;;2.95;;
13807;SDS011;40769;51.512;5.494;2024-02-26T08:32:26;2.80;;;2.60;;
13807;SDS011;40769;51.512;5.494;2024-02-26T08:34:52;2.67;;;2.47;;
13807;SDS011;40769;51.512;5.494;2024-02-26T08:37:18;2.78;;;2.50;;
13807;SDS011;40769;51.512;5.494;2024-02-26T08:39:44;2.90;;;2.70;;
13807;SDS011;40769;51.512;5.494;2024-02-26T08:42:10;2.47;;;2.28;;
13807;SDS011;40769;51.512;5.494;2024-02-26T08:54:58;2.80;;;2.60;;
13807;SDS011;40769;51.512;5.494;2024-02-26T08:57:24;2.92;;;2.72;;
13807;SDS011;40769;51.512;5.494;2024-02-26T08:59:52;3.50;;;3.20;;
13807;SDS011;40769;51.512;5.494;2024-02-26T09:02:17;3.42;;;3.13;;
13807;SDS011;40769;51.512;5.494;2024-02-26T09:04:44;3.25;;;3.05;;
13807;SDS011;40769;51.512;5.494;2024-02-26T09:07:10;3.03;;;2.83;;
13807;SDS011;40769;51.512;5.494;2024-02-26T09:19:57;3.50;;;3.20;;
13807;SDS011;40769;51.512;5.494;2024-02-26T09:22:23;3.90;;;3.60;;
13807;SDS011;40769;51.512;5.494;2024-02-26T09:27:24;3.65;;;3.35;;
13807;SDS011;40769;51.512;5.494;2024-02-26T10:19:04;4.28;;;3.95;;
13807;SDS011;40769;51.512;5.494;2024-02-26T10:21:30;5.15;;;4.75;;
13807;SDS011;40769;51.512;5.494;2024-02-26T10:23:55;5.28;;;4.88;;
13807;SDS011;40769;51.512;5.494;2024-02-26T10:26:21;5.45;;;4.95;;
13807;SDS011;40769;51.512;5.494;2024-02-26T10:28:47;5.40;;;5.00;;
13807;SDS011;40769;51.512;5.494;2024-02-26T10:31:13;5.43;;;4.95;;
13807;SDS011;40769;51.512;5.494;2024-02-26T10:33:39;6.18;;;5.68;;
13807;SDS011;40769;51.512;5.494;2024-02-26T10:36:06;6.55;;;5.95;;
13807;SDS011;40769;51.512;5.494;2024-02-26T10:38:33;6.47;;;5.97;;
13807;SDS011;40769;51.512;5.494;2024-02-26T10:41:01;6.25;;;5.75;;
13807;SDS011;40769;51.512;5.494;2024-02-26T10:43:28;6.30;;;5.80;;
13807;SDS011;40769;51.512;5.494;2024-02-26T10:45:57;6.28;;;5.78;;
13807;SDS011;40769;51.512;5.494;2024-02-26T10:48:23;6.60;;;6.10;;
13807;SDS011;40769;51.512;5.494;2024-02-26T10:50:49;7.68;;;7.07;;
13807;SDS011;40769;51.512;5.494;2024-02-26T10:53:26;6.57;;;6.07;;
13807;SDS011;40769;51.512;5.494;2024-02-26T10:55:55;8.27;;;7.57;;
13807;SDS011;40769;51.512;5.494;2024-02-26T10:58:25;7.63;;;7.03;;
13807;SDS011;40769;51.512;5.494;2024-02-26T11:00:52;7.18;;;6.57;;
13807;SDS011;40769;51.512;5.494;2024-02-26T11:03:18;8.23;;;7.53;;
13807;SDS011;40769;51.512;5.494;2024-02-26T11:05:48;9.00;;;8.20;;
13807;SDS011;40769;51.512;5.494;2024-02-26T11:08:15;7.80;;;7.18;;
13807;SDS011;40769;51.512;5.494;2024-02-26T11:10:43;7.35;;;6.75;;
13807;SDS011;40769;51.512;5.494;2024-02-26T11:13:12;6.65;;;6.07;;
13807;SDS011;40769;51.512;5.494;2024-02-26T11:15:40;8.20;;;7.57;;
13807;SDS011;40769;51.512;5.494;2024-02-26T11:18:07;9.40;;;8.60;;
13807;SDS011;40769;51.512;5.494;2024-02-26T11:20:33;8.52;;;7.82;;
13807;SDS011;40769;51.512;5.494;2024-02-26T11:23:03;8.32;;;7.63;;
13807;SDS011;40769;51.512;5.494;2024-02-26T11:25:29;9.02;;;8.30;;
13807;SDS011;40769;51.512;5.494;2024-02-26T11:27:55;7.55;;;6.95;;
13807;SDS011;40769;51.512;5.494;2024-02-26T11:30:26;8.85;;;8.05;;
13807;SDS011;40769;51.512;5.494;2024-02-26T11:32:56;8.57;;;7.88;;
13807;SDS011;40769;51.512;5.494;2024-02-26T11:35:22;8.20;;;7.50;;
13807;SDS011;40769;51.512;5.494;2024-02-26T11:37:55;8.60;;;7.80;;
13807;SDS011;40769;51.512;5.494;2024-02-26T11:40:23;8.45;;;7.70;;
13807;SDS011;40769;51.512;5.494;2024-02-26T11:42:50;8.57;;;7.80;;
13807;SDS011;40769;51.512;5.494;2024-02-26T11:48:02;8.20;;;7.50;;
13807;SDS011;40769;51.512;5.494;2024-02-26T11:50:41;9.98;;;9.07;;
13807;SDS011;40769;51.512;5.494;2024-02-26T11:53:27;9.27;;;8.48;;
13807;SDS011;40769;51.512;5.494;2024-02-26T11:56:12;9.05;;;8.25;;
13807;SDS011;40769;51.512;5.494;2024-02-26T11:59:13;8.02;;;7.32;;
13807;SDS011;40769;51.512;5.494;2024-02-26T12:02:02;9.98;;;9.07;;
13807;SDS011;40769;51.512;5.494;2024-02-26T12:04:27;9.55;;;8.65;;
13807;SDS011;40769;51.512;5.494;2024-02-26T12:06:56;9.45;;;8.55;;
13807;SDS011;40769;51.512;5.494;2024-02-26T12:12:02;11.15;;;10.15;;
13807;SDS011;40769;51.512;5.494;2024-02-26T12:14:38;11.50;;;10.35;;
13807;SDS011;40769;51.512;5.494;2024-02-26T12:17:06;13.00;;;11.55;;
13807;SDS011;40769;51.512;5.494;2024-02-26T12:19:37;11.50;;;10.40;;
13807;SDS011;40769;51.512;5.494;2024-02-26T12:22:03;11.73;;;10.52;;
13807;SDS011;40769;51.512;5.494;2024-02-26T12:24:31;12.55;;;11.27;;
13807;SDS011;40769;51.512;5.494;2024-02-26T12:26:57;11.93;;;10.73;;
13807;SDS011;40769;51.512;5.494;2024-02-26T12:29:23;10.90;;;9.85;;
13807;SDS011;40769;51.512;5.494;2024-02-26T12:31:48;12.32;;;11.13;;
13807;SDS011;40769;51.512;5.494;2024-02-26T12:34:14;12.85;;;11.55;;
13807;SDS011;40769;51.512;5.494;2024-02-26T12:36:41;14.85;;;13.35;;
13807;SDS011;40769;51.512;5.494;2024-02-26T12:39:07;13.10;;;11.77;;
13807;SDS011;40769;51.512;5.494;2024-02-26T12:41:34;11.88;;;10.68;;
13807;SDS011;40769;51.512;5.494;2024-02-26T12:44:03;12.20;;;11.00;;
13807;SDS011;40769;51.512;5.494;2024-02-26T12:46:28;11.50;;;10.30;;
13807;SDS011;40769;51.512;5.494;2024-02-26T12:48:55;14.90;;;13.30;;
13807;SDS011;40769;51.512;5.494;2024-02-26T12:51:23;14.52;;;12.98;;
13807;SDS011;40769;51.512;5.494;2024-02-26T12:53:49;14.70;;;12.93;;
13807;SDS011;40769;51.512;5.494;2024-02-26T12:56:17;15.55;;;14.05;;
13807;SDS011;40769;51.512;5.494;2024-02-26T12:58:43;15.95;;;14.35;;
13807;SDS011;40769;51.512;5.494;2024-02-26T13:01:14;16.15;;;14.52;;
13807;SDS011;40769;51.512;5.494;2024-02-26T13:03:42;14.35;;;12.95;;
13807;SDS011;40769;51.512;5.494;2024-02-26T13:06:09;13.63;;;12.30;;
13807;SDS011;40769;51.512;5.494;2024-02-26T13:08:35;12.30;;;11.20;;
13807;SDS011;40769;51.512;5.494;2024-02-26T13:11:00;13.77;;;12.10;;
13807;SDS011;40769;51.512;5.494;2024-02-26T13:13:26;15.55;;;13.90;;
13807;SDS011;40769;51.512;5.494;2024-02-26T13:16:02;15.60;;;13.95;;
13807;SDS011;40769;51.512;5.494;2024-02-26T13:18:29;14.48;;;12.93;;
13807;SDS011;40769;51.512;5.494;2024-02-26T13:21:07;12.70;;;11.48;;
13807;SDS011;40769;51.512;5.494;2024-02-26T13:23:38;13.38;;;12.07;;
13807;SDS011;40769;51.512;5.494;2024-02-26T13:26:05;12.95;;;11.73;;
13807;SDS011;40769;51.512;5.494;2024-02-26T13:28:31;13.07;;;11.77;;
13807;SDS011;40769;51.512;5.494;2024-02-26T13:30:57;15.73;;;14.05;;
13807;SDS011;40769;51.512;5.494;2024-02-26T13:33:25;11.32;;;10.00;;
13807;SDS011;40769;51.512;5.494;2024-02-26T13:35:53;13.10;;;11.77;;
13807;SDS011;40769;51.512;5.494;2024-02-26T13:38:22;14.60;;;12.88;;
13807;SDS011;40769;51.512;5.494;2024-02-26T13:40:47;12.48;;;11.18;;
13807;SDS011;40769;51.512;5.494;2024-02-26T13:43:14;12.60;;;11.32;;
13807;SDS011;40769;51.512;5.494;2024-02-26T13:45:40;10.65;;;9.55;;
13807;SDS011;40769;51.512;5.494;2024-02-26T13:48:06;11.80;;;10.60;;
13807;SDS011;40769;51.512;5.494;2024-02-26T13:50:34;12.30;;;9.73;;
13807;SDS011;40769;51.512;5.494;2024-02-26T13:53:01;10.27;;;9.27;;
13807;SDS011;40769;51.512;5.494;2024-02-26T13:55:27;10.55;;;9.45;;
13807;SDS011;40769;51.512;5.494;2024-02-26T13:57:55;10.32;;;9.32;;
13807;SDS011;40769;51.512;5.494;2024-02-26T14:00:22;7.22;;;6.60;;
13807;SDS011;40769;51.512;5.494;2024-02-26T14:02:47;10.55;;;9.45;;
13807;SDS011;40769;51.512;5.494;2024-02-26T14:05:13;9.20;;;7.80;;
13807;SDS011;40769;51.512;5.494;2024-02-26T14:07:39;9.10;;;8.20;;
13807;SDS011;40769;51.512;5.494;2024-02-26T14:10:06;10.52;;;9.43;;
13807;SDS011;40769;51.512;5.494;2024-02-26T14:12:32;10.07;;;8.70;;
13807;SDS011;40769;51.512;5.494;2024-02-26T14:14:57;10.20;;;9.20;;
13807;SDS011;40769;51.512;5.494;2024-02-26T14:17:25;11.65;;;10.02;;
13807;SDS011;40769;51.512;5.494;2024-02-26T14:19:51;11.60;;;10.40;;
13807;SDS011;40769;51.512;5.494;2024-02-26T14:22:17;8.50;;;7.70;;
13807;SDS011;40769;51.512;5.494;2024-02-26T14:24:43;9.32;;;8.43;;
13807;SDS011;40769;51.512;5.494;2024-02-26T14:27:09;9.80;;;8.90;;
13807;SDS011;40769;51.512;5.494;2024-02-26T14:29:35;11.68;;;10.48;;
13807;SDS011;40769;51.512;5.494;2024-02-26T14:32:02;10.57;;;9.48;;
13807;SDS011;40769;51.512;5.494;2024-02-26T14:34:29;9.93;;;8.93;;
13807;SDS011;40769;51.512;5.494;2024-02-26T14:36:54;10.68;;;9.57;;
13807;SDS011;40769;51.512;5.494;2024-02-26T14:39:20;9.43;;;8.52;;
13807;SDS011;40769;51.512;5.494;2024-02-26T14:41:46;9.85;;;8.88;;
13807;SDS011;40769;51.512;5.494;2024-02-26T14:44:11;10.25;;;9.20;;
13807;SDS011;40769;51.512;5.494;2024-02-26T14:46:37;9.60;;;8.70;;
13807;SDS011;40769;51.512;5.494;2024-02-26T14:49:03;8.73;;;7.93;;
13807;SDS011;40769;51.512;5.494;2024-02-26T14:51:29;8.57;;;7.78;;
13807;SDS011;40769;51.512;5.494;2024-02-26T14:53:54;9.80;;;8.82;;
13807;SDS011;40769;51.512;5.494;2024-02-26T14:56:20;8.40;;;7.60;;
13807;SDS011;40769;51.512;5.494;2024-02-26T14:58:45;9.68;;;8.77;;
13807;SDS011;40769;51.512;5.494;2024-02-26T15:01:11;9.23;;;8.32;;
13807;SDS011;40769;51.512;5.494;2024-02-26T15:03:37;12.50;;;10.55;;
13807;SDS011;40769;51.512;5.494;2024-02-26T15:06:02;8.20;;;7.40;;
13807;SDS011;40769;51.512;5.494;2024-02-26T15:08:28;9.38;;;8.48;;
13807;SDS011;40769;51.512;5.494;2024-02-26T15:10:54;10.10;;;9.20;;
13807;SDS011;40769;51.512;5.494;2024-02-26T15:13:19;9.68;;;8.80;;
13807;SDS011;40769;51.512;5.494;2024-02-26T15:15:45;11.95;;;10.75;;
13807;SDS011;40769;51.512;5.494;2024-02-26T15:18:11;9.40;;;8.57;;
13807;SDS011;40769;51.512;5.494;2024-02-26T15:20:40;11.05;;;10.02;;
13807;SDS011;40769;51.512;5.494;2024-02-26T15:23:08;11.10;;;10.00;;
13807;SDS011;40769;51.512;5.494;2024-02-26T15:25:34;9.32;;;8.43;;
13807;SDS011;40769;51.512;5.494;2024-02-26T15:28:00;9.40;;;8.50;;
13807;SDS011;40769;51.512;5.494;2024-02-26T15:30:26;10.35;;;9.35;;
13807;SDS011;40769;51.512;5.494;2024-02-26T15:32:55;10.32;;;9.30;;
13807;SDS011;40769;51.512;5.494;2024-02-26T15:35:21;8.93;;;8.13;;
13807;SDS011;40769;51.512;5.494;2024-02-26T15:37:47;10.27;;;9.20;;
13807;SDS011;40769;51.512;5.494;2024-02-26T15:40:12;10.25;;;9.25;;
13807;SDS011;40769;51.512;5.494;2024-02-26T15:42:38;10.20;;;9.18;;
13807;SDS011;40769;51.512;5.494;2024-02-26T15:45:04;10.10;;;9.07;;
13807;SDS011;40769;51.512;5.494;2024-02-26T15:47:31;11.02;;;9.93;;
13807;SDS011;40769;51.512;5.494;2024-02-26T15:49:57;11.13;;;9.93;;
13807;SDS011;40769;51.512;5.494;2024-02-26T15:52:22;11.43;;;10.38;;
13807;SDS011;40769;51.512;5.494;2024-02-26T15:54:48;11.00;;;9.90;;
13807;SDS011;40769;51.512;5.494;2024-02-26T15:57:15;11.27;;;10.18;;
13807;SDS011;40769;51.512;5.494;2024-02-26T15:59:42;10.27;;;9.20;;
13807;SDS011;40769;51.512;5.494;2024-02-26T16:02:07;11.98;;;10.00;;
13807;SDS011;40769;51.512;5.494;2024-02-26T16:04:33;12.57;;;11.25;;
13807;SDS011;40769;51.512;5.494;2024-02-26T16:07:00;12.23;;;10.93;;
13807;SDS011;40769;51.512;5.494;2024-02-26T16:09:33;11.45;;;10.32;;
13807;SDS011;40769;51.512;5.494;2024-02-26T16:11:59;10.73;;;9.70;;
13807;SDS011;40769;51.512;5.494;2024-02-26T16:17:12;11.23;;;10.02;;
13807;SDS011;40769;51.512;5.494;2024-02-26T16:19:43;9.65;;;8.65;;
13807;SDS011;40769;51.512;5.494;2024-02-26T16:22:09;10.90;;;9.77;;
13807;SDS011;40769;51.512;5.494;2024-02-26T16:24:35;11.82;;;10.38;;
13807;SDS011;40769;51.512;5.494;2024-02-26T16:27:01;9.73;;;8.70;;
13807;SDS011;40769;51.512;5.494;2024-02-26T16:29:26;10.10;;;9.00;;
13807;SDS011;40769;51.512;5.494;2024-02-26T16:31:52;13.65;;;10.98;;
13807;SDS011;40769;51.512;5.494;2024-02-26T16:34:18;10.35;;;9.10;;
13807;SDS011;40769;51.512;5.494;2024-02-26T16:36:44;11.27;;;10.10;;
13807;SDS011;40769;51.512;5.494;2024-02-26T16:39:09;8.75;;;7.90;;
13807;SDS011;40769;51.512;5.494;2024-02-26T16:41:35;9.65;;;8.65;;
13807;SDS011;40769;51.512;5.494;2024-02-26T16:44:00;10.80;;;9.77;;